Time;durP1;ratioP1;P1;durP2;ratioP2;P2;SDS_P1;SDS_P2;PMS_P1;PMS_P2;Temp;Humidity;BMP_temperature;BMP_pressure;BME280_temperature;BME280_humidity;BME280_pressure;Samples;Min_cycle;Max_cycle;Signal;HPM_P1;HPM_P2
2021/10/24 00:00:52;;;;;;;28.38;18.17;;;;;;;12.52;100.00;101063.53;4937820;29;20487;-83
2021/10/24 00:03:19;;;;;;;31.42;19.08;;;;;;;12.30;100.00;101068.88;4936676;29;20070;-82
2021/10/24 00:05:46;;;;;;;31.35;19.90;;;;;;;12.22;100.00;101072.72;4938232;29;20092;-84
2021/10/24 00:08:13;;;;;;;30.63;18.15;;;;;;;12.19;100.00;101076.28;4936962;29;20083;-84
2021/10/24 00:10:40;;;;;;;32.17;19.90;;;;;;;12.13;100.00;101073.09;4937216;29;20059;-84
2021/10/24 00:13:06;;;;;;;30.75;18.17;;;;;;;12.11;100.00;101073.19;4935567;29;20509;-83
2021/10/24 00:15:33;;;;;;;28.70;17.52;;;;;;;12.18;100.00;101081.59;4937713;29;20075;-83
2021/10/24 00:18:00;;;;;;;23.30;14.07;;;;;;;12.05;100.00;101084.75;4936891;29;20039;-84
2021/10/24 00:20:27;;;;;;;26.20;15.25;;;;;;;12.04;100.00;101085.66;4934880;29;20503;-84
2021/10/24 00:22:54;;;;;;;21.27;14.93;;;;;;;12.03;100.00;101091.78;4937039;29;20487;-83
2021/10/24 00:25:21;;;;;;;26.50;13.63;;;;;;;12.09;100.00;101089.81;4936980;29;20075;-84
2021/10/24 00:27:48;;;;;;;23.05;14.80;;;;;;;12.08;100.00;101086.38;4935939;29;20046;-83
2021/10/24 00:30:15;;;;;;;24.65;13.95;;;;;;;12.07;100.00;101088.13;4932497;29;20040;-84
2021/10/24 00:32:42;;;;;;;24.42;15.52;;;;;;;12.03;100.00;101081.34;4917301;29;20424;-84
2021/10/24 00:35:09;;;;;;;22.85;15.05;;;;;;;11.86;100.00;101088.19;4926058;29;20047;-83
2021/10/24 00:37:35;;;;;;;20.08;13.70;;;;;;;11.84;100.00;101083.03;4935351;29;20048;-83
2021/10/24 00:40:04;;;;;;;28.67;18.65;;;;;;;11.85;100.00;101089.97;4936495;29;20095;-84
2021/10/24 00:42:49;;;;;;;26.08;16.63;;;;;;;11.62;100.00;101090.03;4935809;29;20507;-84
2021/10/24 00:45:17;;;;;;;21.70;13.02;;;;;;;11.47;100.00;101084.53;4935091;29;20044;-84
2021/10/24 00:47:44;;;;;;;15.00;9.40;;;;;;;11.51;100.00;101085.25;4937399;29;20054;-84
2021/10/24 00:50:12;;;;;;;15.60;10.23;;;;;;;11.37;100.00;101083.19;4936866;29;20101;-85
2021/10/24 00:52:41;;;;;;;17.25;9.88;;;;;;;11.24;100.00;101092.44;4934502;29;20056;-84
2021/10/24 00:55:09;;;;;;;18.77;8.32;;;;;;;11.22;100.00;101091.63;4923521;29;20068;-82
2021/10/24 00:57:36;;;;;;;17.90;8.93;;;;;;;11.25;100.00;101094.97;4937425;29;20467;-82
2021/10/24 01:00:12;;;;;;;17.33;9.45;;;;;;;11.23;100.00;101085.50;4938833;29;20080;-85
2021/10/24 01:02:40;;;;;;;13.98;8.55;;;;;;;11.41;100.00;101091.75;4936608;29;20058;-83
2021/10/24 01:05:12;;;;;;;15.80;9.10;;;;;;;11.29;100.00;101082.63;4935038;29;20127;-84
2021/10/24 01:07:43;;;;;;;18.40;10.30;;;;;;;11.23;100.00;101088.94;4926928;29;20086;-83
2021/10/24 01:10:15;;;;;;;20.08;9.65;;;;;;;11.35;100.00;101087.63;4936026;29;20388;-82
2021/10/24 01:12:45;;;;;;;13.57;8.77;;;;;;;11.20;100.00;101078.63;4934551;29;20047;-84
2021/10/24 01:15:11;;;;;;;11.57;7.38;;;;;;;10.98;100.00;101077.78;4934800;29;20044;-83
2021/10/24 01:17:39;;;;;;;10.50;6.40;;;;;;;10.91;100.00;101079.75;4935705;29;20495;-81
2021/10/24 01:20:08;;;;;;;8.18;5.72;;;;;;;11.03;100.00;101075.84;4919178;29;20517;-82
2021/10/24 01:22:38;;;;;;;13.80;6.03;;;;;;;11.09;100.00;101075.59;4919359;29;20047;-83
2021/10/24 01:25:07;;;;;;;14.60;5.60;;;;;;;11.00;100.00;101071.59;4934904;29;20051;-82
2021/10/24 01:27:37;;;;;;;17.23;6.60;;;;;;;11.00;100.00;101066.38;4934625;29;20071;-82
2021/10/24 01:30:06;;;;;;;12.80;5.82;;;;;;;10.92;100.00;101078.88;4934369;29;20411;-83
2021/10/24 01:32:35;;;;;;;12.52;6.43;;;;;;;10.96;100.00;101069.16;4933629;29;20051;-82
2021/10/24 01:35:02;;;;;;;9.85;5.63;;;;;;;11.14;100.00;101073.66;4933694;29;20403;-83
2021/10/24 01:37:35;;;;;;;9.77;5.95;;;;;;;10.94;100.00;101082.25;4934382;29;20107;-83
2021/10/24 01:40:05;;;;;;;12.82;5.00;;;;;;;11.08;100.00;101076.53;4934335;29;20128;-83
2021/10/24 01:42:32;;;;;;;13.57;5.63;;;;;;;11.02;100.00;101085.44;4935728;29;20052;-84
2021/10/24 01:45:09;;;;;;;14.48;5.90;;;;;;;11.17;100.00;101078.75;4934154;29;20036;-83
2021/10/24 01:47:38;;;;;;;13.80;6.00;;;;;;;11.01;100.00;101077.66;4934460;29;20110;-83
2021/10/24 01:50:05;;;;;;;15.45;6.05;;;;;;;11.01;100.00;101075.03;4935634;29;20376;-83
2021/10/24 01:52:32;;;;;;;11.73;5.65;;;;;;;10.96;100.00;101069.16;4934484;29;20139;-83
2021/10/24 01:54:59;;;;;;;10.50;5.65;;;;;;;11.02;100.00;101074.13;4934208;29;20047;-83
2021/10/24 01:57:26;;;;;;;10.05;5.60;;;;;;;10.99;100.00;101067.28;4933942;29;20380;-83
2021/10/24 01:59:53;;;;;;;18.83;5.68;;;;;;;11.05;100.00;101060.13;4934357;29;20055;-83
2021/10/24 02:02:38;;;;;;;13.95;6.03;;;;;;;10.93;100.00;101058.84;4935427;29;20066;-83
2021/10/24 02:05:22;;;;;;;9.18;5.97;;;;;;;10.91;100.00;101060.66;4933889;29;20078;-82
2021/10/24 02:07:49;;;;;;;13.57;5.60;;;;;;;11.03;100.00;101062.81;4933798;29;20581;-83
2021/10/24 02:10:17;;;;;;;18.50;5.75;;;;;;;10.98;100.00;101065.59;4934256;29;20112;-82
2021/10/24 02:12:46;;;;;;;12.40;5.80;;;;;;;11.06;100.00;101064.44;4933491;29;20059;-82
2021/10/24 02:15:19;;;;;;;8.73;6.30;;;;;;;10.93;100.00;101062.31;4934149;29;20111;-82
2021/10/24 02:17:47;;;;;;;10.55;5.90;;;;;;;10.92;100.00;101060.59;4935183;29;20042;-83
2021/10/24 02:20:17;;;;;;;13.10;6.10;;;;;;;10.90;100.00;101064.16;4933710;29;20050;-83
2021/10/24 02:22:45;;;;;;;9.23;5.40;;;;;;;10.91;100.00;101061.50;4933749;29;20134;-83
2021/10/24 02:25:18;;;;;;;16.25;5.55;;;;;;;10.93;100.00;101064.06;4933854;29;20047;-84
2021/10/24 02:27:46;;;;;;;13.23;6.88;;;;;;;11.01;100.00;101062.84;4918323;29;20040;-88
2021/10/24 02:30:14;;;;;;;15.32;6.10;;;;;;;10.79;100.00;101064.56;4918916;29;20052;-87
2021/10/24 02:32:42;;;;;;;10.10;5.10;;;;;;;10.81;100.00;101059.28;4920263;29;20051;-88
2021/10/24 02:35:11;;;;;;;9.73;5.25;;;;;;;10.81;100.00;101060.13;4919527;29;20048;-88
2021/10/24 02:37:44;;;;;;;8.07;4.65;;;;;;;10.73;100.00;101063.06;4919757;29;20050;-89
2021/10/24 02:40:15;;;;;;;7.10;4.57;;;;;;;10.73;100.00;101057.00;4919999;29;20491;-89
2021/10/24 02:42:48;;;;;;;10.73;4.72;;;;;;;10.62;100.00;101059.16;4917513;29;20076;-89
2021/10/24 02:45:22;;;;;;;9.70;4.55;;;;;;;10.60;100.00;101066.16;4915616;29;20131;-89
2021/10/24 02:47:49;;;;;;;8.52;6.05;;;;;;;10.59;100.00;101059.25;4915790;29;20083;-86
2021/10/24 02:50:17;;;;;;;11.25;5.30;;;;;;;10.52;100.00;101063.84;4918364;29;20443;-88
2021/10/24 02:52:44;;;;;;;9.93;5.07;;;;;;;10.55;100.00;101062.91;4919870;29;20055;-89
2021/10/24 02:55:12;;;;;;;12.05;5.90;;;;;;;10.79;100.00;101069.78;4921838;29;20085;-88
2021/10/24 02:57:38;;;;;;;9.85;4.43;;;;;;;10.65;100.00;101069.44;4919242;29;20091;-88
2021/10/24 03:00:07;;;;;;;10.82;5.22;;;;;;;10.55;100.00;101062.91;4921900;29;20082;-89
2021/10/24 03:02:34;;;;;;;10.38;4.75;;;;;;;10.59;100.00;101069.69;4918982;29;20411;-90
2021/10/24 03:05:01;;;;;;;12.45;5.00;;;;;;;10.54;100.00;101066.38;4918622;29;20052;-89
2021/10/24 03:07:28;;;;;;;8.35;4.82;;;;;;;10.62;100.00;101064.38;4918467;29;20052;-89
2021/10/24 03:09:56;;;;;;;11.45;5.57;;;;;;;10.51;100.00;101071.72;4918627;29;20052;-89
2021/10/24 03:12:24;;;;;;;8.80;4.88;;;;;;;10.67;100.00;101065.91;4918717;29;20048;-89
2021/10/24 03:14:51;;;;;;;12.75;5.85;;;;;;;10.62;100.00;101066.97;4918433;29;20044;-89
2021/10/24 03:17:21;;;;;;;14.63;5.45;;;;;;;10.86;100.00;101060.81;4919355;29;20048;-89
2021/10/24 03:19:48;;;;;;;15.95;6.18;;;;;;;10.67;100.00;101067.66;4918519;29;20054;-88
2021/10/24 03:22:14;;;;;;;19.65;6.85;;;;;;;10.68;100.00;101069.34;4919173;29;20082;-88
2021/10/24 03:24:42;;;;;;;13.13;5.57;;;;;;;10.89;100.00;101068.53;4918401;29;20044;-87
2021/10/24 03:27:09;;;;;;;16.63;5.88;;;;;;;11.10;100.00;101060.78;4918482;29;20051;-88
2021/10/24 03:29:36;;;;;;;17.15;7.85;;;;;;;10.86;100.00;101066.03;4920002;29;20047;-89
2021/10/24 03:32:05;;;;;;;18.98;7.97;;;;;;;10.95;100.00;101064.84;4918152;29;20103;-88
2021/10/24 03:34:32;;;;;;;16.30;6.80;;;;;;;11.23;100.00;101072.44;4924007;29;20035;-88
2021/10/24 03:37:02;;;;;;;14.02;7.10;;;;;;;11.35;100.00;101071.13;4936554;29;20062;-88
2021/10/24 03:39:31;;;;;;;20.52;8.75;;;;;;;11.08;100.00;101066.09;4924097;29;20079;-88
2021/10/24 03:42:02;;;;;;;21.00;7.72;;;;;;;11.18;100.00;101079.59;4937494;29;20052;-88
2021/10/24 03:44:29;;;;;;;18.00;8.68;;;;;;;11.07;100.00;101077.41;4936534;29;20047;-88
2021/10/24 03:46:56;;;;;;;19.50;9.00;;;;;;;11.07;100.00;101071.34;4938010;29;20531;-89
2021/10/24 03:49:27;;;;;;;15.45;6.43;;;;;;;10.86;100.00;101073.84;4909640;29;20040;-88
2021/10/24 03:51:54;;;;;;;10.40;5.93;;;;;;;10.84;100.00;101083.50;4924773;29;20051;-89
2021/10/24 03:54:21;;;;;;;16.05;5.60;;;;;;;10.92;100.00;101078.88;4938527;29;20043;-88
2021/10/24 03:56:48;;;;;;;17.73;8.38;;;;;;;10.70;100.00;101081.41;4938022;29;20050;-89
2021/10/24 03:59:15;;;;;;;7.88;5.35;;;;;;;10.87;100.00;101091.22;4936657;29;20131;-89
2021/10/24 04:01:42;;;;;;;10.70;5.40;;;;;;;10.85;100.00;101092.19;4935152;29;20048;-89
2021/10/24 04:04:09;;;;;;;12.23;5.28;;;;;;;10.75;100.00;101092.50;4936504;29;20499;-88
2021/10/24 04:06:38;;;;;;;13.15;4.78;;;;;;;10.69;100.00;101091.91;4936307;29;20052;-88
2021/10/24 04:09:06;;;;;;;6.50;4.30;;;;;;;10.55;100.00;101086.38;4936595;29;20152;-88
2021/10/24 04:11:34;;;;;;;11.65;4.75;;;;;;;10.78;100.00;101086.34;4936104;29;20048;-89
2021/10/24 04:14:03;;;;;;;9.85;4.80;;;;;;;10.77;100.00;101094.25;4919043;29;20123;-88
2021/10/24 04:16:34;;;;;;;8.38;4.53;;;;;;;10.56;100.00;101090.66;4917382;29;20059;-88
2021/10/24 04:19:07;;;;;;;10.88;4.03;;;;;;;10.61;100.00;101094.81;4934734;29;20484;-88
2021/10/24 04:21:42;;;;;;;;;;;;;;;10.71;100.00;101090.09;4936732;29;20058;-89
2021/10/24 04:24:11;;;;;;;6.45;4.03;;;;;;;10.66;100.00;101086.81;4935788;29;19970;-87
2021/10/24 04:26:38;;;;;;;6.10;3.75;;;;;;;10.59;100.00;101095.75;4936298;29;20466;-87
2021/10/24 04:29:08;;;;;;;10.07;4.43;;;;;;;10.62;100.00;101091.28;4935952;29;20079;-87
2021/10/24 04:31:36;;;;;;;8.20;3.95;;;;;;;10.57;100.00;101089.75;4936422;29;20144;-88
2021/10/24 04:34:03;;;;;;;7.38;3.97;;;;;;;10.63;100.00;101089.53;4936743;29;20074;-87
2021/10/24 04:36:30;;;;;;;9.90;6.03;;;;;;;10.62;100.00;101087.84;4937203;29;20044;-88
2021/10/24 04:38:57;;;;;;;9.65;4.00;;;;;;;10.57;100.00;101089.75;4926147;29;20051;-87
2021/10/24 04:41:23;;;;;;;9.43;3.60;;;;;;;10.61;100.00;101088.75;4917399;29;20491;-88
2021/10/24 04:43:51;;;;;;;4.47;3.42;;;;;;;10.53;100.00;101081.19;4931987;29;20044;-87
2021/10/24 04:46:21;;;;;;;5.55;3.30;;;;;;;10.55;100.00;101087.22;4933601;29;20135;-86
2021/10/24 04:48:48;;;;;;;6.05;3.10;;;;;;;10.43;99.06;101085.03;4935391;29;20046;-87
2021/10/24 04:51:15;;;;;;;5.35;3.30;;;;;;;10.43;98.64;101087.63;4935349;29;20043;-87
2021/10/24 04:53:41;;;;;;;5.60;3.45;;;;;;;10.42;98.63;101089.41;4936355;29;20043;-87
2021/10/24 04:56:10;;;;;;;5.85;3.17;;;;;;;10.59;99.61;101082.72;4935074;29;20083;-88
2021/10/24 04:58:37;;;;;;;5.28;3.03;;;;;;;10.39;97.05;101092.13;4935083;29;20039;-87
2021/10/24 05:01:05;;;;;;;6.60;3.45;;;;;;;10.35;96.87;101087.91;4936341;29;20054;-88
2021/10/24 05:03:32;;;;;;;4.43;2.95;;;;;;;10.44;95.48;101077.19;4932959;29;20423;-90
2021/10/24 05:06:01;;;;;;;7.45;3.10;;;;;;;10.45;96.07;101083.25;4955945;29;20047;-86
2021/10/24 05:08:31;;;;;;;21.20;6.18;;;;;;;10.40;97.29;101078.19;4959596;29;20050;-87
2021/10/24 05:10:58;;;;;;;8.38;4.40;;;;;;;10.30;98.28;101079.41;4959177;29;20558;-86
2021/10/24 05:13:25;;;;;;;4.68;2.85;;;;;;;10.38;97.42;101076.53;4958666;29;20035;-87
2021/10/24 05:15:52;;;;;;;4.75;3.28;;;;;;;10.31;97.24;101075.91;4946469;29;20043;-87
2021/10/24 05:18:19;;;;;;;3.92;2.78;;;;;;;10.28;97.34;101078.63;4936586;29;20464;-87
2021/10/24 05:20:46;;;;;;;14.15;3.28;;;;;;;10.29;97.16;101082.94;4937057;29;20071;-86
2021/10/24 05:23:13;;;;;;;12.10;3.50;;;;;;;10.25;97.36;101068.31;4936208;29;20044;-86
2021/10/24 05:25:53;;;;;;;4.25;2.83;;;;;;;10.22;95.98;101066.59;4935202;29;20055;-87
2021/10/24 05:28:21;;;;;;;6.10;3.22;;;;;;;10.21;95.33;101077.09;4935090;29;20040;-87
2021/10/24 05:30:53;;;;;;;5.20;2.78;;;;;;;10.30;93.89;101079.41;4935514;29;20513;-89
2021/10/24 05:33:21;;;;;;;7.93;3.55;;;;;;;10.29;94.00;101079.47;4935242;29;20111;-89
2021/10/24 05:36:06;;;;;;;3.15;2.50;;;;;;;10.21;92.59;101079.69;4937153;29;20517;-90
2021/10/24 05:38:34;;;;;;;3.95;3.45;;;;;;;10.21;92.61;101088.38;4935463;29;20447;-89
2021/10/24 05:41:08;;;;;;;8.85;3.50;;;;;;;10.09;92.21;101090.56;4929349;29;20069;-87
2021/10/24 05:43:37;;;;;;;8.13;2.92;;;;;;;10.11;93.16;101083.53;4939820;29;20381;-86
2021/10/24 05:46:06;;;;;;;4.57;3.40;;;;;;;10.06;92.78;101088.91;4923962;29;20483;-85
2021/10/24 05:48:32;;;;;;;5.35;3.42;;;;;;;10.03;93.05;101091.63;4928311;29;20628;-86
2021/10/24 05:51:09;;;;;;;4.03;2.78;;;;;;;9.92;93.29;101091.13;4925896;29;20390;-86
2021/10/24 05:53:36;;;;;;;4.75;2.70;;;;;;;10.06;93.31;101096.72;4925260;29;20143;-86
2021/10/24 05:56:10;;;;;;;4.00;2.83;;;;;;;10.23;92.03;101098.75;4934981;29;20172;-84
2021/10/24 05:58:42;;;;;;;4.25;3.22;;;;;;;10.14;92.74;101101.66;4927331;29;20075;-85
2021/10/24 06:01:27;;;;;;;5.38;3.17;;;;;;;9.88;93.56;101098.19;4929337;29;20051;-85
2021/10/24 06:04:13;;;;;;;4.68;3.15;;;;;;;10.11;92.72;101100.00;4929005;29;20075;-86
2021/10/24 06:07:01;;;;;;;6.95;2.90;;;;;;;10.29;91.90;101109.00;4916982;29;20043;-86
2021/10/24 06:09:38;;;;;;;5.05;3.05;;;;;;;10.28;92.53;101104.69;4929832;29;20043;-86
2021/10/24 06:12:06;;;;;;;6.18;3.60;;;;;;;10.34;91.75;101117.50;4944757;29;20044;-86
2021/10/24 06:14:33;;;;;;;4.20;3.13;;;;;;;10.24;89.83;101116.13;4928063;29;20043;-88
2021/10/24 06:17:00;;;;;;;7.15;4.65;;;;;;;10.51;88.99;101121.25;4924434;29;20036;-86
2021/10/24 06:19:27;;;;;;;5.68;2.85;;;;;;;10.43;87.05;101126.72;4925294;29;20052;-81
2021/10/24 06:21:54;;;;;;;6.82;2.83;;;;;;;10.76;86.68;101122.09;4927210;29;20044;-82
2021/10/24 06:24:21;;;;;;;3.30;2.65;;;;;;;10.70;85.70;101124.88;4931003;29;20043;-82
2021/10/24 06:26:48;;;;;;;3.95;3.30;;;;;;;10.72;83.02;101130.91;4929445;29;20040;-82
2021/10/24 06:29:15;;;;;;;6.15;3.33;;;;;;;10.82;83.10;101144.47;4927650;29;20110;-82
2021/10/24 06:31:42;;;;;;;3.67;3.10;;;;;;;10.99;83.04;101139.47;4924530;29;20040;-82
2021/10/24 06:34:32;;;;;;;4.43;2.97;;;;;;;10.94;83.76;101137.03;4931677;29;20048;-86
2021/10/24 06:37:23;;;;;;;9.05;3.17;;;;;;;11.30;82.25;101147.00;4927346;29;20040;-83
2021/10/24 06:39:55;;;;;;;6.10;3.38;;;;;;;11.39;81.14;101130.97;4926646;29;20138;-84
2021/10/24 06:42:21;;;;;;;5.07;3.03;;;;;;;11.57;80.78;101139.84;4921347;29;20502;-82
2021/10/24 06:45:08;;;;;;;5.72;2.90;;;;;;;11.47;78.52;101147.19;4929043;29;20526;-82
2021/10/24 06:47:55;;;;;;;4.20;2.58;;;;;;;11.14;77.92;101145.88;4924066;29;20060;-82
2021/10/24 06:50:40;;;;;;;4.63;2.65;;;;;;;11.05;77.37;101151.44;4924104;29;20070;-82
2021/10/24 06:53:27;;;;;;;3.15;2.45;;;;;;;11.17;77.89;101148.38;4926304;29;20435;-82
2021/10/24 06:56:32;;;;;;;3.88;2.50;;;;;;;11.20;78.55;101156.94;4913070;29;20077;-83
2021/10/24 06:59:19;;;;;;;7.35;3.80;;;;;;;11.27;78.55;101157.53;4884456;29;20056;-84
2021/10/24 07:02:17;;;;;;;4.50;3.60;;;;;;;11.18;76.99;101163.94;4869449;29;20076;-84
2021/10/24 07:05:02;;;;;;;2.55;2.35;;;;;;;10.96;76.98;101161.31;4928795;29;20514;-83
2021/10/24 07:07:32;;;;;;;3.08;2.70;;;;;;;10.95;77.79;101172.66;4931736;29;20047;-86
2021/10/24 07:10:06;;;;;;;6.72;2.92;;;;;;;11.02;77.44;101168.94;4931642;29;20540;-82
2021/10/24 07:12:35;;;;;;;5.18;3.97;;;;;;;10.99;77.18;101166.41;4931773;29;20048;-85
2021/10/24 07:15:07;;;;;;;7.35;3.38;;;;;;;11.19;77.44;101176.13;4930025;29;20143;-86
2021/10/24 07:17:38;;;;;;;4.00;3.60;;;;;;;11.63;77.36;101165.72;4933698;29;20036;-86
2021/10/24 07:20:06;;;;;;;4.78;3.75;;;;;;;11.74;76.63;101167.88;4932307;29;20051;-84
2021/10/24 07:22:45;;;;;;;8.82;3.92;;;;;;;11.51;76.00;101171.44;4930995;29;20123;-93
2021/10/24 07:25:30;;;;;;;7.07;3.55;;;;;;;11.56;75.21;101174.72;4918244;29;20062;-91
2021/10/24 07:27:56;;;;;;;5.30;3.88;;;;;;;11.67;73.24;101174.28;4930316;29;20044;-87
2021/10/24 07:30:24;;;;;;;6.22;4.25;;;;;;;11.66;73.92;101178.63;4925560;29;20044;-89
2021/10/24 07:32:55;;;;;;;4.45;3.47;;;;;;;11.42;74.58;101187.44;4928841;29;20044;-84
2021/10/24 07:35:37;;;;;;;6.88;3.70;;;;;;;11.50;73.81;101188.84;4924383;29;20048;-89
2021/10/24 07:38:13;;;;;;;4.60;3.20;;;;;;;10.87;76.71;101185.13;4935751;29;20044;-88
2021/10/24 07:40:42;;;;;;;7.07;3.45;;;;;;;11.43;75.16;101189.13;4930830;29;20040;-82
2021/10/24 07:43:13;;;;;;;4.32;3.10;;;;;;;11.52;75.26;101191.41;4932828;29;20142;-88
2021/10/24 07:45:42;;;;;;;4.32;3.75;;;;;;;11.70;74.47;101181.97;4930921;29;20059;-82
2021/10/24 07:48:09;;;;;;;3.83;3.00;;;;;;;11.68;74.28;101183.81;4930160;29;20104;-83
2021/10/24 07:50:36;;;;;;;6.68;2.95;;;;;;;11.95;74.20;101181.88;4936298;29;20074;-81
2021/10/24 07:53:05;;;;;;;4.43;2.65;;;;;;;11.75;74.95;101193.94;4936321;29;20048;-88
2021/10/24 07:55:43;;;;;;;6.47;4.68;;;;;;;12.16;76.10;101195.84;4937006;29;20574;-88
2021/10/24 07:58:23;;;;;;;12.52;5.03;;;;;;;12.58;74.67;101191.41;4934049;29;20043;-89
2021/10/24 08:00:53;;;;;;;6.80;3.47;;;;;;;11.60;75.31;101183.25;4938460;29;20051;-87
2021/10/24 08:03:21;;;;;;;10.63;5.60;;;;;;;11.90;74.49;101189.91;4937081;29;20521;-85
2021/10/24 08:05:48;;;;;;;7.32;4.25;;;;;;;12.14;74.13;101200.25;4936304;29;20083;-87
2021/10/24 08:08:15;;;;;;;9.80;4.50;;;;;;;11.97;74.04;101190.50;4936069;29;20043;-86
2021/10/24 08:10:42;;;;;;;6.82;4.57;;;;;;;11.69;76.02;101193.34;4934153;29;20399;-82
2021/10/24 08:13:09;;;;;;;7.47;4.25;;;;;;;11.89;74.86;101193.44;4933511;29;20044;-81
2021/10/24 08:15:36;;;;;;;12.05;6.90;;;;;;;12.26;74.75;101197.16;4935894;29;20406;-81
2021/10/24 08:18:03;;;;;;;7.25;4.57;;;;;;;12.95;72.07;101207.25;4932280;29;20415;-80
2021/10/24 08:20:49;;;;;;;8.32;4.88;;;;;;;13.04;71.81;101207.66;4932152;29;20043;-80
2021/10/24 08:23:16;;;;;;;8.82;5.07;;;;;;;13.02;71.12;101209.53;4931365;29;20442;-80
2021/10/24 08:25:44;;;;;;;6.68;5.30;;;;;;;13.16;70.94;101205.44;4935044;29;20035;-81
2021/10/24 08:28:12;;;;;;;6.47;4.53;;;;;;;13.53;69.87;101212.44;4929575;29;20130;-81
2021/10/24 08:31:12;;;;;;;6.25;5.22;;;;;;;14.12;67.31;101204.34;4921001;29;20051;-80
2021/10/24 08:33:43;;;;;;;10.65;6.10;;;;;;;14.00;67.05;101206.72;4928680;29;20043;-82
2021/10/24 08:36:10;;;;;;;8.57;6.70;;;;;;;14.28;67.49;101204.44;4929583;29;20039;-82
2021/10/24 08:38:37;;;;;;;7.28;5.78;;;;;;;13.91;66.47;101197.56;4935353;29;20087;-85
2021/10/24 08:41:05;;;;;;;7.15;5.38;;;;;;;12.84;70.39;101205.97;4928986;29;20437;-79
2021/10/24 08:43:34;;;;;;;10.65;5.65;;;;;;;13.57;68.71;101199.16;4935492;29;20463;-83
2021/10/24 08:46:02;;;;;;;10.18;6.28;;;;;;;13.61;69.04;101203.31;4927528;29;20428;-79
2021/10/24 08:48:31;;;;;;;11.93;6.95;;;;;;;13.04;70.62;101199.81;4933989;29;20040;-84
2021/10/24 08:50:58;;;;;;;10.13;7.15;;;;;;;12.83;72.25;101192.94;4928241;29;20047;-81
2021/10/24 08:53:27;;;;;;;14.80;5.57;;;;;;;12.68;71.97;101188.41;4928257;29;20054;-82
2021/10/24 08:55:54;;;;;;;11.00;5.25;;;;;;;13.09;71.77;101190.00;4930883;29;20052;-81
2021/10/24 08:58:21;;;;;;;9.45;6.50;;;;;;;13.00;71.77;101187.81;4927908;29;20083;-81
2021/10/24 09:00:49;;;;;;;12.18;7.03;;;;;;;12.91;74.09;101198.69;4928696;29;20042;-80
2021/10/24 09:03:16;;;;;;;10.52;6.07;;;;;;;12.76;72.62;101183.66;4928250;29;20126;-80
2021/10/24 09:05:48;;;;;;;10.50;6.20;;;;;;;12.71;73.47;101190.84;4927909;29;20047;-82
2021/10/24 09:08:21;;;;;;;7.85;4.70;;;;;;;13.11;71.65;101197.81;4931048;29;20047;-80
2021/10/24 09:10:56;;;;;;;6.55;4.38;;;;;;;13.01;72.34;101197.34;4926291;29;20091;-80
2021/10/24 09:13:28;;;;;;;10.05;4.28;;;;;;;13.15;73.52;101185.41;4932753;29;20501;-83
2021/10/24 09:16:02;;;;;;;6.75;4.13;;;;;;;13.24;71.80;101192.88;4927875;29;20571;-81
2021/10/24 09:18:32;;;;;;;9.70;4.78;;;;;;;13.08;73.80;101198.78;4933089;29;20040;-83
2021/10/24 09:21:15;;;;;;;8.65;4.80;;;;;;;12.76;73.89;101196.75;4926663;29;20044;-83
2021/10/24 09:23:43;;;;;;;6.90;3.70;;;;;;;12.96;72.38;101195.88;4930295;29;20040;-83
2021/10/24 09:26:40;;;;;;;7.68;3.70;;;;;;;12.84;72.63;101205.97;4928268;29;20044;-84
2021/10/24 09:29:10;;;;;;;5.05;3.67;;;;;;;13.05;72.50;101203.31;4929614;29;20124;-84
2021/10/24 09:31:41;;;;;;;5.28;3.00;;;;;;;13.08;71.65;101198.78;4926926;29;20079;-83
2021/10/24 09:34:23;;;;;;;5.80;3.65;;;;;;;12.92;72.58;101203.00;4928516;29;20047;-84
2021/10/24 09:37:17;;;;;;;7.10;4.00;;;;;;;13.32;72.46;101193.38;4931709;29;20050;-84
2021/10/24 09:40:16;;;;;;;;;;;;;;;13.19;70.60;101200.06;4931498;29;20056;-82
2021/10/24 09:42:44;;;;;;;4.70;3.58;;;;;;;13.15;70.45;101190.63;4925466;29;19930;-84
2021/10/24 09:45:15;;;;;;;6.28;3.60;;;;;;;13.38;69.54;101190.47;4927497;29;20040;-85
2021/10/24 09:47:47;;;;;;;5.57;3.28;;;;;;;13.34;68.93;101191.53;4924834;29;20123;-84
2021/10/24 09:50:32;;;;;;;9.23;4.07;;;;;;;13.65;68.71;101197.94;4922333;29;20039;-83
2021/10/24 09:53:09;;;;;;;7.38;3.20;;;;;;;13.37;68.92;101199.25;4935382;29;20479;-86
2021/10/24 09:55:35;;;;;;;6.00;3.63;;;;;;;13.72;68.95;101194.09;4934734;29;20083;-83
2021/10/24 09:58:03;;;;;;;6.07;3.38;;;;;;;14.20;67.58;101190.00;4931803;29;20491;-83
2021/10/24 10:00:31;;;;;;;6.38;4.22;;;;;;;13.98;67.85;101190.22;4933621;29;20043;-84
2021/10/24 10:03:00;;;;;;;7.90;3.15;;;;;;;13.97;67.51;101189.38;4931362;29;20032;-83
2021/10/24 10:05:28;;;;;;;6.65;3.15;;;;;;;14.20;67.25;101185.59;4928964;29;20091;-85
2021/10/24 10:07:54;;;;;;;5.70;3.20;;;;;;;14.01;67.27;101196.19;4933549;29;20040;-84
2021/10/24 10:10:24;;;;;;;7.72;3.88;;;;;;;14.02;66.96;101197.88;4931268;29;20507;-86
2021/10/24 10:12:52;;;;;;;6.90;3.22;;;;;;;13.97;66.79;101201.63;4929481;29;20036;-85
2021/10/24 10:15:28;;;;;;;11.80;3.35;;;;;;;13.54;68.73;101207.16;4934641;29;20111;-84
2021/10/24 10:17:56;;;;;;;5.95;2.95;;;;;;;14.27;66.40;101202.72;4934687;29;20040;-83
2021/10/24 10:20:25;;;;;;;8.98;4.53;;;;;;;14.34;65.31;101203.28;4928129;29;20039;-83
2021/10/24 10:23:08;;;;;;;9.23;3.60;;;;;;;14.22;65.32;101206.50;4926039;29;20044;-85
2021/10/24 10:25:37;;;;;;;6.78;2.90;;;;;;;14.61;63.72;101196.66;4926692;29;20075;-83
2021/10/24 10:28:05;;;;;;;6.50;3.20;;;;;;;14.95;62.66;101192.25;4926078;29;20040;-83
2021/10/24 10:30:39;;;;;;;9.82;3.33;;;;;;;13.88;65.59;101197.69;4931796;29;20046;-83
2021/10/24 10:33:34;;;;;;;4.63;2.95;;;;;;;14.42;64.02;101190.63;4928706;29;20047;-87
2021/10/24 10:36:05;;;;;;;3.97;3.20;;;;;;;14.48;63.92;101182.47;4930252;29;20055;-79
2021/10/24 10:38:35;;;;;;;6.32;3.33;;;;;;;14.56;62.98;101182.09;4929380;29;20035;-80
2021/10/24 10:41:03;;;;;;;3.80;3.10;;;;;;;14.23;63.25;101172.34;4934623;29;20040;-81
2021/10/24 10:43:32;;;;;;;5.13;2.92;;;;;;;14.24;63.79;101181.91;4934111;29;20455;-80
2021/10/24 10:46:01;;;;;;;6.75;3.22;;;;;;;14.89;61.45;101174.22;4935340;29;20067;-81
2021/10/24 10:48:32;;;;;;;6.93;3.65;;;;;;;14.92;61.54;101174.06;4933068;29;20091;-80
2021/10/24 10:51:01;;;;;;;4.60;3.35;;;;;;;14.20;63.20;101172.50;4931830;29;20110;-82
2021/10/24 10:53:31;;;;;;;3.08;2.70;;;;;;;14.21;63.33;101174.19;4935252;29;20071;-84
2021/10/24 10:56:01;;;;;;;8.75;3.80;;;;;;;14.44;63.08;101172.19;4938843;29;20052;-87
2021/10/24 10:58:45;;;;;;;9.35;3.13;;;;;;;14.70;63.27;101174.34;4934619;29;20043;-80
2021/10/24 11:01:31;;;;;;;8.57;4.03;;;;;;;14.89;63.35;101169.81;4925694;29;20059;-83
2021/10/24 11:04:07;;;;;;;7.97;3.28;;;;;;;14.78;67.22;101163.44;4926555;29;20303;-81
2021/10/24 11:06:36;;;;;;;5.75;2.63;;;;;;;15.00;61.34;101161.34;4924152;29;20058;-80
2021/10/24 11:09:09;;;;;;;3.22;2.78;;;;;;;14.91;62.81;101156.59;4924129;29;20571;-78
2021/10/24 11:11:58;;;;;;;23.30;14.88;;;;;;;14.90;61.46;101157.53;4931895;29;20495;-79
2021/10/24 11:14:45;;;;;;;9.73;6.45;;;;;;;15.07;61.53;101151.38;4936691;29;20040;-80
2021/10/24 11:17:32;;;;;;;4.75;3.15;;;;;;;14.74;62.63;101154.03;4931880;29;20036;-82
2021/10/24 11:20:30;;;;;;;5.50;2.95;;;;;;;14.90;61.76;101154.91;4933510;29;20103;-81
2021/10/24 11:23:00;;;;;;;8.85;3.08;;;;;;;14.47;61.58;101145.78;4933412;29;20044;-81
2021/10/24 11:25:46;;;;;;;3.53;2.40;;;;;;;15.33;60.27;101142.91;4935941;29;20087;-80
2021/10/24 11:28:16;;;;;;;9.90;5.70;;;;;;;15.00;59.53;101145.59;4936460;29;20044;-80
2021/10/24 11:30:50;;;;;;;9.75;2.97;;;;;;;15.28;59.56;101137.06;4930811;29;20090;-82
2021/10/24 11:37:06;;;;;;;6.55;3.83;;;;;;;14.94;60.79;101123.16;4927717;29;20122;-84
2021/10/24 11:39:35;;;;;;;4.53;3.45;;;;;;;15.10;60.49;101127.56;4931147;29;20051;-89
2021/10/24 11:42:13;;;;;;;4.15;3.00;;;;;;;15.07;60.49;101131.19;4929279;29;20356;-89